sensor_id;sensor_type;location;lat;lon;timestamp;pressure;altitude;pressure_sealevel;temperature;humidity
2339;BME280;1180;51.438;6.978;2023-05-22T00:02:05;100096.34;;;21.32;88.76
2339;BME280;1180;51.438;6.978;2023-05-22T00:04:30;100096.53;;;21.31;89.31
2339;BME280;1180;51.438;6.978;2023-05-22T00:06:56;100096.88;;;20.95;90.78
2339;BME280;1180;51.438;6.978;2023-05-22T00:09:23;100099.47;;;20.95;91.95
2339;BME280;1180;51.438;6.978;2023-05-22T00:11:48;100092.78;;;21.00;91.54
2339;BME280;1180;51.438;6.978;2023-05-22T00:14:14;100095.56;;;20.99;91.86
2339;BME280;1180;51.438;6.978;2023-05-22T00:16:40;100093.09;;;20.97;91.88
2339;BME280;1180;51.438;6.978;2023-05-22T00:19:06;100092.59;;;20.85;93.28
2339;BME280;1180;51.438;6.978;2023-05-22T00:21:39;100085.88;;;20.66;94.40
2339;BME280;1180;51.438;6.978;2023-05-22T00:24:05;100080.41;;;20.86;94.49
2339;BME280;1180;51.438;6.978;2023-05-22T00:26:30;100083.00;;;20.94;93.22
2339;BME280;1180;51.438;6.978;2023-05-22T00:28:56;100075.66;;;21.14;91.41
2339;BME280;1180;51.438;6.978;2023-05-22T00:31:22;100075.00;;;20.79;93.61
2339;BME280;1180;51.438;6.978;2023-05-22T00:33:48;100077.59;;;20.71;95.67
2339;BME280;1180;51.438;6.978;2023-05-22T00:36:13;100078.44;;;20.80;94.46
2339;BME280;1180;51.438;6.978;2023-05-22T00:38:39;100074.66;;;20.66;95.66
2339;BME280;1180;51.438;6.978;2023-05-22T00:41:05;100069.28;;;21.00;93.71
2339;BME280;1180;51.438;6.978;2023-05-22T00:43:32;100072.91;;;20.91;93.73
2339;BME280;1180;51.438;6.978;2023-05-22T00:45:57;100072.09;;;20.99;93.95
2339;BME280;1180;51.438;6.978;2023-05-22T00:48:23;100072.53;;;20.69;95.77
2339;BME280;1180;51.438;6.978;2023-05-22T00:50:50;100075.44;;;20.58;98.05
2339;BME280;1180;51.438;6.978;2023-05-22T00:53:18;100082.81;;;20.71;98.33
2339;BME280;1180;51.438;6.978;2023-05-22T00:55:45;100079.91;;;20.99;95.59
2339;BME280;1180;51.438;6.978;2023-05-22T00:58:14;100079.22;;;21.13;94.57
2339;BME280;1180;51.438;6.978;2023-05-22T01:00:41;100066.19;;;21.21;93.39
2339;BME280;1180;51.438;6.978;2023-05-22T01:03:08;100081.88;;;20.97;94.85
2339;BME280;1180;51.438;6.978;2023-05-22T01:05:34;100076.78;;;21.03;95.11
2339;BME280;1180;51.438;6.978;2023-05-22T01:08:00;100084.13;;;20.83;95.82
2339;BME280;1180;51.438;6.978;2023-05-22T01:10:27;100085.28;;;20.97;95.62
2339;BME280;1180;51.438;6.978;2023-05-22T01:13:23;100087.22;;;21.03;94.50
2339;BME280;1180;51.438;6.978;2023-05-22T01:18:44;100087.72;;;21.07;93.86
2339;BME280;1180;51.438;6.978;2023-05-22T01:21:28;100083.13;;;21.17;93.49
2339;BME280;1180;51.438;6.978;2023-05-22T01:27:02;100084.47;;;21.13;93.52
2339;BME280;1180;51.438;6.978;2023-05-22T01:32:20;100078.28;;;21.06;93.34
2339;BME280;1180;51.438;6.978;2023-05-22T01:34:51;100078.44;;;20.96;94.78
2339;BME280;1180;51.438;6.978;2023-05-22T01:37:18;100072.69;;;20.76;93.75
2339;BME280;1180;51.438;6.978;2023-05-22T01:39:46;100075.31;;;20.84;92.95
2339;BME280;1180;51.438;6.978;2023-05-22T01:42:12;100072.66;;;20.43;94.87
2339;BME280;1180;51.438;6.978;2023-05-22T01:44:37;100069.25;;;20.42;95.37
2339;BME280;1180;51.438;6.978;2023-05-22T01:47:03;100073.25;;;20.20;96.72
2339;BME280;1180;51.438;6.978;2023-05-22T01:49:33;100059.41;;;20.11;97.28
2339;BME280;1180;51.438;6.978;2023-05-22T01:55:12;100057.91;;;20.09;97.30
2339;BME280;1180;51.438;6.978;2023-05-22T01:57:59;100054.66;;;20.06;97.98
2339;BME280;1180;51.438;6.978;2023-05-22T02:00:27;100058.44;;;20.12;98.08
2339;BME280;1180;51.438;6.978;2023-05-22T02:03:02;100054.53;;;20.16;98.00
2339;BME280;1180;51.438;6.978;2023-05-22T02:05:31;100047.25;;;20.45;97.25
2339;BME280;1180;51.438;6.978;2023-05-22T02:07:59;100042.84;;;20.70;94.97
2339;BME280;1180;51.438;6.978;2023-05-22T02:10:27;100043.56;;;20.89;93.83
2339;BME280;1180;51.438;6.978;2023-05-22T02:12:53;100044.50;;;21.04;92.59
2339;BME280;1180;51.438;6.978;2023-05-22T02:15:19;100041.94;;;20.88;92.32
2339;BME280;1180;51.438;6.978;2023-05-22T02:17:45;100042.59;;;20.82;93.63
2339;BME280;1180;51.438;6.978;2023-05-22T02:20:13;100048.44;;;20.75;93.28
2339;BME280;1180;51.438;6.978;2023-05-22T02:22:41;100043.38;;;20.82;93.38
2339;BME280;1180;51.438;6.978;2023-05-22T02:25:07;100038.97;;;20.91;92.97
2339;BME280;1180;51.438;6.978;2023-05-22T02:27:35;100043.22;;;20.92;92.45
2339;BME280;1180;51.438;6.978;2023-05-22T02:30:01;100037.53;;;20.88;92.42
2339;BME280;1180;51.438;6.978;2023-05-22T02:32:26;100032.31;;;20.88;92.76
2339;BME280;1180;51.438;6.978;2023-05-22T02:34:52;100035.06;;;20.95;91.94
2339;BME280;1180;51.438;6.978;2023-05-22T02:37:17;100033.13;;;20.72;91.98
2339;BME280;1180;51.438;6.978;2023-05-22T02:39:43;100030.31;;;20.49;93.63
2339;BME280;1180;51.438;6.978;2023-05-22T02:42:08;100029.66;;;20.72;92.87
2339;BME280;1180;51.438;6.978;2023-05-22T02:44:33;100031.00;;;20.84;91.69
2339;BME280;1180;51.438;6.978;2023-05-22T02:46:59;100026.44;;;20.86;91.67
2339;BME280;1180;51.438;6.978;2023-05-22T02:49:24;100026.78;;;20.91;91.18
2339;BME280;1180;51.438;6.978;2023-05-22T02:51:50;100019.94;;;20.90;91.20
2339;BME280;1180;51.438;6.978;2023-05-22T02:54:15;100019.94;;;20.90;90.99
2339;BME280;1180;51.438;6.978;2023-05-22T02:56:43;100017.78;;;20.94;90.85
2339;BME280;1180;51.438;6.978;2023-05-22T02:59:08;100007.88;;;20.89;90.17
2339;BME280;1180;51.438;6.978;2023-05-22T03:01:34;100011.75;;;20.85;90.52
2339;BME280;1180;51.438;6.978;2023-05-22T03:04:00;100003.63;;;20.88;90.19
2339;BME280;1180;51.438;6.978;2023-05-22T03:06:25;100003.13;;;20.93;90.30
2339;BME280;1180;51.438;6.978;2023-05-22T03:08:51;100002.00;;;20.96;89.88
2339;BME280;1180;51.438;6.978;2023-05-22T03:11:17;100002.78;;;20.96;89.39
2339;BME280;1180;51.438;6.978;2023-05-22T03:13:42;100002.44;;;20.99;89.46
2339;BME280;1180;51.438;6.978;2023-05-22T03:16:07;100004.94;;;20.92;89.41
2339;BME280;1180;51.438;6.978;2023-05-22T03:18:33;100005.72;;;20.93;89.24
2339;BME280;1180;51.438;6.978;2023-05-22T03:21:00;100008.97;;;20.95;89.19
2339;BME280;1180;51.438;6.978;2023-05-22T03:23:25;100009.97;;;20.94;89.59
2339;BME280;1180;51.438;6.978;2023-05-22T03:25:51;100009.50;;;20.90;89.56
2339;BME280;1180;51.438;6.978;2023-05-22T03:28:16;100009.97;;;20.94;89.61
2339;BME280;1180;51.438;6.978;2023-05-22T03:30:41;100004.59;;;20.96;89.31
2339;BME280;1180;51.438;6.978;2023-05-22T03:33:07;100011.13;;;20.91;89.44
2339;BME280;1180;51.438;6.978;2023-05-22T03:35:32;100016.00;;;20.70;91.02
2339;BME280;1180;51.438;6.978;2023-05-22T03:37:57;100012.06;;;20.74;90.37
2339;BME280;1180;51.438;6.978;2023-05-22T03:40:23;100008.31;;;20.68;90.83
2339;BME280;1180;51.438;6.978;2023-05-22T03:42:48;100015.16;;;20.69;91.25
2339;BME280;1180;51.438;6.978;2023-05-22T03:45:14;100024.13;;;20.75;91.34
2339;BME280;1180;51.438;6.978;2023-05-22T03:47:40;100014.53;;;20.75;90.91
2339;BME280;1180;51.438;6.978;2023-05-22T03:50:05;100024.78;;;20.77;91.03
2339;BME280;1180;51.438;6.978;2023-05-22T03:52:31;100017.63;;;20.71;91.44
2339;BME280;1180;51.438;6.978;2023-05-22T03:54:56;100021.84;;;20.72;91.17
2339;BME280;1180;51.438;6.978;2023-05-22T03:57:22;100018.75;;;20.68;91.76
2339;BME280;1180;51.438;6.978;2023-05-22T03:59:47;100023.31;;;20.58;92.28
2339;BME280;1180;51.438;6.978;2023-05-22T04:02:13;100025.13;;;20.57;92.75
2339;BME280;1180;51.438;6.978;2023-05-22T04:04:40;100013.38;;;20.53;93.13
2339;BME280;1180;51.438;6.978;2023-05-22T04:07:06;100023.31;;;20.58;93.16
2339;BME280;1180;51.438;6.978;2023-05-22T04:09:37;100020.72;;;20.58;93.19
2339;BME280;1180;51.438;6.978;2023-05-22T04:12:03;100021.69;;;20.57;93.13
2339;BME280;1180;51.438;6.978;2023-05-22T04:14:29;100014.69;;;20.57;93.41
2339;BME280;1180;51.438;6.978;2023-05-22T04:16:54;100009.63;;;20.47;93.77
2339;BME280;1180;51.438;6.978;2023-05-22T04:19:20;100007.03;;;20.39;93.86
2339;BME280;1180;51.438;6.978;2023-05-22T04:21:47;100017.59;;;20.38;94.26
2339;BME280;1180;51.438;6.978;2023-05-22T04:24:13;100014.34;;;20.35;94.23
2339;BME280;1180;51.438;6.978;2023-05-22T04:26:38;100019.88;;;20.41;94.24
2339;BME280;1180;51.438;6.978;2023-05-22T04:29:04;100019.88;;;20.41;93.83
2339;BME280;1180;51.438;6.978;2023-05-22T04:31:34;100021.34;;;20.43;93.68
2339;BME280;1180;51.438;6.978;2023-05-22T04:33:59;100030.78;;;20.36;94.62
2339;BME280;1180;51.438;6.978;2023-05-22T04:36:25;100030.44;;;20.31;95.02
2339;BME280;1180;51.438;6.978;2023-05-22T04:38:51;100024.72;;;20.19;95.87
2339;BME280;1180;51.438;6.978;2023-05-22T04:41:17;100028.66;;;20.23;96.00
2339;BME280;1180;51.438;6.978;2023-05-22T04:43:45;100030.44;;;20.23;96.07
2339;BME280;1180;51.438;6.978;2023-05-22T04:46:15;100031.25;;;20.23;96.12
2339;BME280;1180;51.438;6.978;2023-05-22T04:48:40;100031.75;;;20.27;96.29
2339;BME280;1180;51.438;6.978;2023-05-22T04:51:06;100038.59;;;20.28;95.99
2339;BME280;1180;51.438;6.978;2023-05-22T04:53:31;100034.84;;;20.22;96.82
2339;BME280;1180;51.438;6.978;2023-05-22T04:55:58;100036.94;;;20.18;97.55
2339;BME280;1180;51.438;6.978;2023-05-22T04:58:24;100025.03;;;20.16;98.23
2339;BME280;1180;51.438;6.978;2023-05-22T05:00:52;100027.31;;;20.19;97.93
2339;BME280;1180;51.438;6.978;2023-05-22T05:03:18;100030.75;;;20.28;97.85
2339;BME280;1180;51.438;6.978;2023-05-22T05:05:43;100032.56;;;20.35;96.86
2339;BME280;1180;51.438;6.978;2023-05-22T05:08:09;100038.78;;;20.34;97.21
2339;BME280;1180;51.438;6.978;2023-05-22T05:10:34;100034.88;;;20.39;96.45
2339;BME280;1180;51.438;6.978;2023-05-22T05:13:00;100033.56;;;20.34;96.72
2339;BME280;1180;51.438;6.978;2023-05-22T05:15:25;100031.28;;;20.31;96.78
2339;BME280;1180;51.438;6.978;2023-05-22T05:17:51;100031.09;;;20.33;97.27
2339;BME280;1180;51.438;6.978;2023-05-22T05:20:17;100033.75;;;20.41;96.51
2339;BME280;1180;51.438;6.978;2023-05-22T05:22:42;100029.97;;;20.35;96.56
2339;BME280;1180;51.438;6.978;2023-05-22T05:25:10;100038.59;;;20.36;97.08
2339;BME280;1180;51.438;6.978;2023-05-22T05:27:35;100033.56;;;20.34;97.43
2339;BME280;1180;51.438;6.978;2023-05-22T05:30:01;100032.91;;;20.32;97.35
2339;BME280;1180;51.438;6.978;2023-05-22T05:32:26;100034.38;;;20.43;97.02
2339;BME280;1180;51.438;6.978;2023-05-22T05:34:52;100034.53;;;20.50;96.92
2339;BME280;1180;51.438;6.978;2023-05-22T05:37:17;100033.88;;;20.48;96.97
2339;BME280;1180;51.438;6.978;2023-05-22T05:39:42;100041.22;;;20.44;95.36
2339;BME280;1180;51.438;6.978;2023-05-22T05:42:08;100041.38;;;20.51;97.18
2339;BME280;1180;51.438;6.978;2023-05-22T05:44:33;100042.34;;;20.50;97.58
2339;BME280;1180;51.438;6.978;2023-05-22T05:46:58;100039.59;;;20.52;97.40
2339;BME280;1180;51.438;6.978;2023-05-22T05:49:25;100048.41;;;20.51;97.70
2339;BME280;1180;51.438;6.978;2023-05-22T05:51:51;100046.63;;;20.59;97.79
2339;BME280;1180;51.438;6.978;2023-05-22T05:54:16;100045.00;;;20.58;97.74
2339;BME280;1180;51.438;6.978;2023-05-22T05:56:41;100052.50;;;20.61;98.05
2339;BME280;1180;51.438;6.978;2023-05-22T05:59:07;100056.41;;;20.57;98.15
2339;BME280;1180;51.438;6.978;2023-05-22T06:01:34;100059.16;;;20.64;98.54
2339;BME280;1180;51.438;6.978;2023-05-22T06:04:00;100056.41;;;20.66;98.64
2339;BME280;1180;51.438;6.978;2023-05-22T06:06:30;100056.41;;;20.74;97.85
2339;BME280;1180;51.438;6.978;2023-05-22T06:08:59;100056.06;;;20.77;98.24
2339;BME280;1180;51.438;6.978;2023-05-22T06:11:25;100054.16;;;20.79;98.75
2339;BME280;1180;51.438;6.978;2023-05-22T06:13:50;100056.59;;;20.81;98.93
2339;BME280;1180;51.438;6.978;2023-05-22T06:16:16;100047.28;;;20.86;98.80
2339;BME280;1180;51.438;6.978;2023-05-22T06:18:41;100050.72;;;20.95;98.69
2339;BME280;1180;51.438;6.978;2023-05-22T06:21:06;100061.81;;;21.05;98.48
2339;BME280;1180;51.438;6.978;2023-05-22T06:23:32;100056.09;;;21.10;98.04
2339;BME280;1180;51.438;6.978;2023-05-22T06:25:57;100052.81;;;21.16;97.91
2339;BME280;1180;51.438;6.978;2023-05-22T06:28:23;100059.66;;;21.26;97.47
2339;BME280;1180;51.438;6.978;2023-05-22T06:30:48;100065.53;;;21.28;96.55
2339;BME280;1180;51.438;6.978;2023-05-22T06:33:14;100065.34;;;21.29;96.75
2339;BME280;1180;51.438;6.978;2023-05-22T06:35:40;100062.59;;;21.31;97.11
2339;BME280;1180;51.438;6.978;2023-05-22T06:38:06;100065.31;;;21.38;96.46
2339;BME280;1180;51.438;6.978;2023-05-22T06:40:31;100067.13;;;21.45;96.23
2339;BME280;1180;51.438;6.978;2023-05-22T06:42:58;100068.06;;;21.53;95.81
2339;BME280;1180;51.438;6.978;2023-05-22T06:45:23;100062.53;;;21.64;94.12
2339;BME280;1180;51.438;6.978;2023-05-22T06:47:52;100066.91;;;21.63;94.42
2339;BME280;1180;51.438;6.978;2023-05-22T06:50:19;100073.09;;;21.79;93.06
2339;BME280;1180;51.438;6.978;2023-05-22T06:52:44;100074.84;;;21.87;92.97
2339;BME280;1180;51.438;6.978;2023-05-22T06:55:10;100078.13;;;21.89;92.43
2339;BME280;1180;51.438;6.978;2023-05-22T06:57:36;100075.78;;;22.02;92.88
2339;BME280;1180;51.438;6.978;2023-05-22T07:00:02;100084.19;;;22.13;92.71
2339;BME280;1180;51.438;6.978;2023-05-22T07:02:28;100082.06;;;22.16;91.29
2339;BME280;1180;51.438;6.978;2023-05-22T07:04:53;100078.63;;;22.16;90.04
2339;BME280;1180;51.438;6.978;2023-05-22T07:07:19;100078.28;;;22.19;89.46
2339;BME280;1180;51.438;6.978;2023-05-22T07:09:44;100083.56;;;22.11;89.77
2339;BME280;1180;51.438;6.978;2023-05-22T07:12:10;100078.28;;;22.19;90.27
2339;BME280;1180;51.438;6.978;2023-05-22T07:14:35;100076.78;;;22.25;90.74
2339;BME280;1180;51.438;6.978;2023-05-22T07:17:01;100077.28;;;22.20;90.58
2339;BME280;1180;51.438;6.978;2023-05-22T07:19:26;100080.34;;;22.32;90.70
2339;BME280;1180;51.438;6.978;2023-05-22T07:21:52;100089.94;;;22.40;90.78
2339;BME280;1180;51.438;6.978;2023-05-22T07:24:18;100081.72;;;22.51;90.71
2339;BME280;1180;51.438;6.978;2023-05-22T07:26:44;100092.59;;;22.63;90.17
2339;BME280;1180;51.438;6.978;2023-05-22T07:29:11;100085.44;;;22.57;89.46
2339;BME280;1180;51.438;6.978;2023-05-22T07:31:38;100090.88;;;22.55;90.27
2339;BME280;1180;51.438;6.978;2023-05-22T07:34:03;100086.09;;;22.59;90.78
2339;BME280;1180;51.438;6.978;2023-05-22T07:36:29;100100.91;;;22.67;89.16
2339;BME280;1180;51.438;6.978;2023-05-22T07:38:56;100098.59;;;22.72;89.11
2339;BME280;1180;51.438;6.978;2023-05-22T07:41:21;100102.59;;;22.83;89.16
2339;BME280;1180;51.438;6.978;2023-05-22T07:43:48;100093.97;;;22.97;89.24
2339;BME280;1180;51.438;6.978;2023-05-22T07:46:13;100102.09;;;23.02;89.56
2339;BME280;1180;51.438;6.978;2023-05-22T07:48:38;100099.31;;;23.04;88.87
2339;BME280;1180;51.438;6.978;2023-05-22T07:51:04;100100.47;;;23.01;88.03
2339;BME280;1180;51.438;6.978;2023-05-22T07:53:30;100098.84;;;23.00;88.92
2339;BME280;1180;51.438;6.978;2023-05-22T07:55:55;100102.56;;;23.06;89.11
2339;BME280;1180;51.438;6.978;2023-05-22T07:58:21;100100.22;;;23.11;88.55
2339;BME280;1180;51.438;6.978;2023-05-22T08:00:48;100108.28;;;23.10;89.00
2339;BME280;1180;51.438;6.978;2023-05-22T08:03:13;100103.59;;;23.20;88.35
2339;BME280;1180;51.438;6.978;2023-05-22T08:05:38;100112.84;;;23.31;87.90
2339;BME280;1180;51.438;6.978;2023-05-22T08:08:04;100102.19;;;23.32;87.51
2339;BME280;1180;51.438;6.978;2023-05-22T08:10:29;100105.16;;;23.29;88.36
2339;BME280;1180;51.438;6.978;2023-05-22T08:12:54;100104.56;;;23.42;88.32
2339;BME280;1180;51.438;6.978;2023-05-22T08:15:20;100114.41;;;23.40;86.77
2339;BME280;1180;51.438;6.978;2023-05-22T08:17:45;100111.88;;;23.32;87.11
2339;BME280;1180;51.438;6.978;2023-05-22T08:20:11;100106.91;;;23.37;88.26
2339;BME280;1180;51.438;6.978;2023-05-22T08:22:37;100112.50;;;23.49;88.15
2339;BME280;1180;51.438;6.978;2023-05-22T08:25:03;100109.63;;;23.44;88.22
2339;BME280;1180;51.438;6.978;2023-05-22T08:27:29;100104.91;;;23.39;87.36
2339;BME280;1180;51.438;6.978;2023-05-22T08:29:54;100103.13;;;23.40;87.55
2339;BME280;1180;51.438;6.978;2023-05-22T08:32:20;100110.34;;;23.14;88.20
2339;BME280;1180;51.438;6.978;2023-05-22T08:34:45;100111.59;;;23.27;87.56
2339;BME280;1180;51.438;6.978;2023-05-22T08:37:12;100121.63;;;23.38;86.10
2339;BME280;1180;51.438;6.978;2023-05-22T08:39:39;100106.50;;;23.25;87.62
2339;BME280;1180;51.438;6.978;2023-05-22T08:42:04;100113.41;;;23.41;87.89
2339;BME280;1180;51.438;6.978;2023-05-22T08:44:30;100115.50;;;23.46;87.18
2339;BME280;1180;51.438;6.978;2023-05-22T08:46:57;100124.34;;;23.45;87.72
2339;BME280;1180;51.438;6.978;2023-05-22T08:49:24;100126.69;;;23.40;87.52
2339;BME280;1180;51.438;6.978;2023-05-22T08:51:55;100124.72;;;23.57;87.70
2339;BME280;1180;51.438;6.978;2023-05-22T08:54:25;100123.72;;;23.73;86.99
2339;BME280;1180;51.438;6.978;2023-05-22T08:56:51;100126.88;;;23.68;86.22
2339;BME280;1180;51.438;6.978;2023-05-22T08:59:18;100126.16;;;23.74;85.32
2339;BME280;1180;51.438;6.978;2023-05-22T09:01:45;100133.66;;;23.92;83.82
2339;BME280;1180;51.438;6.978;2023-05-22T09:04:11;100129.59;;;23.90;83.60
2339;BME280;1180;51.438;6.978;2023-05-22T09:06:36;100132.28;;;23.97;84.34
2339;BME280;1180;51.438;6.978;2023-05-22T09:09:02;100131.88;;;24.08;83.88
2339;BME280;1180;51.438;6.978;2023-05-22T09:11:28;100125.50;;;24.17;83.71
2339;BME280;1180;51.438;6.978;2023-05-22T09:14:05;100136.91;;;23.94;82.47
2339;BME280;1180;51.438;6.978;2023-05-22T09:16:31;100129.31;;;23.70;84.00
2339;BME280;1180;51.438;6.978;2023-05-22T09:18:58;100134.91;;;23.66;84.05
2339;BME280;1180;51.438;6.978;2023-05-22T09:21:26;100139.09;;;23.76;84.28
2339;BME280;1180;51.438;6.978;2023-05-22T09:23:51;100141.16;;;23.80;85.39
2339;BME280;1180;51.438;6.978;2023-05-22T09:26:17;100137.16;;;23.85;84.50
2339;BME280;1180;51.438;6.978;2023-05-22T09:28:42;100134.75;;;23.83;84.15
2339;BME280;1180;51.438;6.978;2023-05-22T09:31:09;100150.75;;;24.03;83.00
2339;BME280;1180;51.438;6.978;2023-05-22T09:33:35;100144.69;;;23.88;82.28
2339;BME280;1180;51.438;6.978;2023-05-22T09:36:01;100148.75;;;24.05;82.21
2339;BME280;1180;51.438;6.978;2023-05-22T09:38:28;100145.22;;;23.98;82.97
2339;BME280;1180;51.438;6.978;2023-05-22T09:40:55;100142.88;;;23.88;82.74
2339;BME280;1180;51.438;6.978;2023-05-22T09:43:22;100145.31;;;23.60;84.34
2339;BME280;1180;51.438;6.978;2023-05-22T09:46:03;100144.84;;;23.71;84.40
2339;BME280;1180;51.438;6.978;2023-05-22T09:48:35;100144.13;;;23.77;81.85
2339;BME280;1180;51.438;6.978;2023-05-22T09:51:01;100146.47;;;23.72;82.53
2339;BME280;1180;51.438;6.978;2023-05-22T09:53:28;100149.94;;;23.73;81.46
2339;BME280;1180;51.438;6.978;2023-05-22T09:55:58;100145.13;;;23.76;81.46
2339;BME280;1180;51.438;6.978;2023-05-22T09:58:25;100144.75;;;23.79;81.43
2339;BME280;1180;51.438;6.978;2023-05-22T10:00:52;100145.38;;;23.82;81.51
2339;BME280;1180;51.438;6.978;2023-05-22T10:03:21;100149.19;;;23.94;80.92
2339;BME280;1180;51.438;6.978;2023-05-22T10:05:51;100147.84;;;23.68;81.01
2339;BME280;1180;51.438;6.978;2023-05-22T10:08:20;100144.50;;;23.74;82.08
2339;BME280;1180;51.438;6.978;2023-05-22T10:10:50;100149.38;;;23.92;81.05
2339;BME280;1180;51.438;6.978;2023-05-22T10:13:19;100151.91;;;24.01;79.66
2339;BME280;1180;51.438;6.978;2023-05-22T10:15:49;100151.25;;;23.84;79.71
2339;BME280;1180;51.438;6.978;2023-05-22T10:18:16;100154.81;;;23.76;79.62
2339;BME280;1180;51.438;6.978;2023-05-22T10:20:41;100151.81;;;23.64;80.20
2339;BME280;1180;51.438;6.978;2023-05-22T10:23:08;100147.94;;;23.75;81.25
2339;BME280;1180;51.438;6.978;2023-05-22T10:25:36;100145.31;;;23.90;81.35
2339;BME280;1180;51.438;6.978;2023-05-22T10:28:02;100151.56;;;23.74;80.13
2339;BME280;1180;51.438;6.978;2023-05-22T10:33:12;100143.59;;;23.82;80.24
2339;BME280;1180;51.438;6.978;2023-05-22T10:35:55;100147.47;;;23.86;79.00
2339;BME280;1180;51.438;6.978;2023-05-22T10:41:03;100142.34;;;23.93;79.04
2339;BME280;1180;51.438;6.978;2023-05-22T10:43:29;100141.44;;;24.01;76.93
2339;BME280;1180;51.438;6.978;2023-05-22T10:46:04;100134.75;;;24.13;76.48
2339;BME280;1180;51.438;6.978;2023-05-22T10:48:39;100137.34;;;23.98;76.75
2339;BME280;1180;51.438;6.978;2023-05-22T10:51:06;100135.47;;;23.92;76.00
2339;BME280;1180;51.438;6.978;2023-05-22T10:53:33;100130.63;;;24.04;76.53
2339;BME280;1180;51.438;6.978;2023-05-22T10:55:59;100125.69;;;24.16;76.82
2339;BME280;1180;51.438;6.978;2023-05-22T10:58:35;100129.19;;;24.38;76.28
2339;BME280;1180;51.438;6.978;2023-05-22T11:01:18;100125.25;;;24.49;76.90
2339;BME280;1180;51.438;6.978;2023-05-22T11:08:55;100120.19;;;24.47;75.42
2339;BME280;1180;51.438;6.978;2023-05-22T11:11:24;100131.75;;;24.53;74.15
2339;BME280;1180;51.438;6.978;2023-05-22T11:13:51;100126.84;;;24.28;74.55
2339;BME280;1180;51.438;6.978;2023-05-22T11:16:16;100121.13;;;24.40;74.71
2339;BME280;1180;51.438;6.978;2023-05-22T11:18:42;100121.06;;;24.55;74.16
2339;BME280;1180;51.438;6.978;2023-05-22T11:21:10;100127.25;;;24.47;74.51
2339;BME280;1180;51.438;6.978;2023-05-22T11:23:38;100126.03;;;24.28;73.13
2339;BME280;1180;51.438;6.978;2023-05-22T11:26:17;100120.66;;;24.36;75.19
2339;BME280;1180;51.438;6.978;2023-05-22T11:28:48;100113.06;;;24.63;75.55
2339;BME280;1180;51.438;6.978;2023-05-22T11:31:16;100115.66;;;24.78;74.74
2339;BME280;1180;51.438;6.978;2023-05-22T11:33:43;100115.19;;;24.89;73.88
2339;BME280;1180;51.438;6.978;2023-05-22T11:36:09;100117.66;;;24.98;74.66
2339;BME280;1180;51.438;6.978;2023-05-22T11:38:34;100113.50;;;25.10;73.54
2339;BME280;1180;51.438;6.978;2023-05-22T11:41:00;100115.97;;;25.18;73.18
2339;BME280;1180;51.438;6.978;2023-05-22T11:43:29;100109.41;;;25.01;71.38
2339;BME280;1180;51.438;6.978;2023-05-22T11:46:10;100115.38;;;25.16;71.59
2339;BME280;1180;51.438;6.978;2023-05-22T11:48:39;100114.63;;;25.22;72.68
2339;BME280;1180;51.438;6.978;2023-05-22T11:51:05;100117.38;;;25.14;73.93
2339;BME280;1180;51.438;6.978;2023-05-22T11:53:31;100117.66;;;25.26;73.01
2339;BME280;1180;51.438;6.978;2023-05-22T11:56:02;100109.19;;;25.02;74.17
2339;BME280;1180;51.438;6.978;2023-05-22T11:58:28;100117.66;;;24.98;74.28
2339;BME280;1180;51.438;6.978;2023-05-22T12:01:03;100107.41;;;25.03;74.23
2339;BME280;1180;51.438;6.978;2023-05-22T12:03:30;100101.19;;;25.11;73.56
2339;BME280;1180;51.438;6.978;2023-05-22T12:05:57;100095.72;;;25.05;73.20
2339;BME280;1180;51.438;6.978;2023-05-22T12:08:23;100107.47;;;25.09;73.27
2339;BME280;1180;51.438;6.978;2023-05-22T12:10:51;100097.16;;;25.36;72.64
2339;BME280;1180;51.438;6.978;2023-05-22T12:13:25;100094.00;;;25.48;73.36
2339;BME280;1180;51.438;6.978;2023-05-22T12:15:52;100096.69;;;25.61;73.49
2339;BME280;1180;51.438;6.978;2023-05-22T12:18:18;100088.41;;;25.64;73.08
2339;BME280;1180;51.438;6.978;2023-05-22T12:20:44;100087.88;;;25.83;74.47
2339;BME280;1180;51.438;6.978;2023-05-22T12:23:25;100086.97;;;26.10;72.78
2339;BME280;1180;51.438;6.978;2023-05-22T12:26:00;100085.16;;;26.11;72.48
2339;BME280;1180;51.438;6.978;2023-05-22T12:28:26;100090.69;;;26.23;72.29
2339;BME280;1180;51.438;6.978;2023-05-22T12:30:53;100085.34;;;26.03;72.79
2339;BME280;1180;51.438;6.978;2023-05-22T12:33:20;100090.28;;;26.19;72.90
2339;BME280;1180;51.438;6.978;2023-05-22T12:35:49;100082.22;;;26.34;71.55
2339;BME280;1180;51.438;6.978;2023-05-22T12:38:19;100087.28;;;26.36;72.12
2339;BME280;1180;51.438;6.978;2023-05-22T12:40:44;100082.66;;;26.58;71.78
2339;BME280;1180;51.438;6.978;2023-05-22T12:43:10;100075.56;;;26.79;72.33
2339;BME280;1180;51.438;6.978;2023-05-22T12:45:35;100080.66;;;27.01;70.33
2339;BME280;1180;51.438;6.978;2023-05-22T12:48:01;100083.69;;;27.11;68.92
2339;BME280;1180;51.438;6.978;2023-05-22T12:50:26;100072.53;;;27.09;68.57
2339;BME280;1180;51.438;6.978;2023-05-22T12:52:52;100068.50;;;27.06;68.92
2339;BME280;1180;51.438;6.978;2023-05-22T12:55:17;100077.84;;;26.95;68.77
2339;BME280;1180;51.438;6.978;2023-05-22T12:57:42;100073.34;;;26.76;67.76
2339;BME280;1180;51.438;6.978;2023-05-22T13:00:08;100078.25;;;26.92;67.26
2339;BME280;1180;51.438;6.978;2023-05-22T13:02:35;100072.16;;;26.99;67.59
2339;BME280;1180;51.438;6.978;2023-05-22T13:05:01;100080.25;;;27.04;67.14
2339;BME280;1180;51.438;6.978;2023-05-22T13:07:26;100074.38;;;27.08;66.04
2339;BME280;1180;51.438;6.978;2023-05-22T13:09:52;100075.19;;;26.95;67.69
2339;BME280;1180;51.438;6.978;2023-05-22T13:12:17;100076.38;;;27.20;67.23
2339;BME280;1180;51.438;6.978;2023-05-22T13:14:43;100077.81;;;27.22;65.89
2339;BME280;1180;51.438;6.978;2023-05-22T13:17:08;100078.34;;;27.45;65.09
2339;BME280;1180;51.438;6.978;2023-05-22T13:19:34;100065.97;;;27.45;65.36
2339;BME280;1180;51.438;6.978;2023-05-22T13:22:00;100070.84;;;27.55;66.53
2339;BME280;1180;51.438;6.978;2023-05-22T13:24:25;100075.88;;;27.63;64.34
2339;BME280;1180;51.438;6.978;2023-05-22T13:26:51;100067.09;;;27.76;63.85
2339;BME280;1180;51.438;6.978;2023-05-22T13:29:16;100059.56;;;27.87;63.34
2339;BME280;1180;51.438;6.978;2023-05-22T13:31:42;100068.44;;;27.99;65.44